Aérodrome :
LOGIN :

S'inscrire | Disclaimer

   EN    FR    IT 

 










Légende :    VFR   VFR Marginal   IFR   IFR Intensif   IFR Très Intensif
Visi : 
Plafond : 
>= 8 km
>= 3000ft
5 à 8 km
1000 à 3000 ft
1500m à 5 km
500 à 1000 ft
800 à 1500m
200 à 500 ft
< 800m
< 200 ft
Symboles :   Orages  Brouillard  Fortes neiges  Fortes précipitations  Vent > 20 kt
SIGMETs :   Divers  Orages  Givrage  Turbulence  Onde Orograph.  Cendres Volcan.






- Altitude de l'aérodrome : 1299 ft


EDTY - Adolf Würth

DERNIER METAR :
  • 091820Z 03002KT 9999 OVC037 00/M02 Q1003

METARs EXPIRÉS :
  • 091750Z 02003KT 9000 OVC036 00/M01 Q1002
  • 091720Z 04003KT 030V090 9999 OVC035 00/M01 Q1002
  • 091650Z 06005KT 9999 OVC035 00/M01 Q1002
  • 091620Z 06004KT 9999 OVC033 00/M01 Q1002
  • 091550Z 05004KT 9999 FEW011 OVC032 00/M01 Q1002

TAF TAF EDTY
Valide du 09 à 18h jusqu'au 10 à 03h UTC


091700Z 0918/1003 01004KT 9999 FEW011 OVC030
TEMPO 0918/1003 OVC004
PROB30
TEMPO 0922/1003 3500 -SN BR



MET'MAP, la Météo Aéronautique d'un coup d'oeil ! - Copyright ORBIFLY Décembre 2007 - Disclaimer

ORBIFLY MET'MAP TEAM :

Programmation & Développement : Alexandra Zaïnal
Sur une idée originale de : Baudouin d'Aumeries
Soutien technique & logistique : Manuel Goepfert
Assistance : Marc-Olivier Méhu




SOURCES & CREDITS :

   NOAA